sensor_id;sensor_type;location;lat;lon;timestamp;P1;durP1;ratioP1;P2;durP2;ratioP2
58338;SDS011;68636;52.704;6.536;2023-07-20T00:00:29;1.38;;;0.70;;
58338;SDS011;68636;52.704;6.536;2023-07-20T00:03:09;2.75;;;0.80;;
58338;SDS011;68636;52.704;6.536;2023-07-20T00:05:48;2.72;;;0.85;;
58338;SDS011;68636;52.704;6.536;2023-07-20T00:08:14;1.42;;;0.75;;
58338;SDS011;68636;52.704;6.536;2023-07-20T00:10:40;2.75;;;0.80;;
58338;SDS011;68636;52.704;6.536;2023-07-20T00:13:06;2.55;;;1.10;;
58338;SDS011;68636;52.704;6.536;2023-07-20T00:15:32;2.50;;;1.13;;
58338;SDS011;68636;52.704;6.536;2023-07-20T00:17:58;4.57;;;1.02;;
58338;SDS011;68636;52.704;6.536;2023-07-20T00:20:24;3.40;;;1.20;;
58338;SDS011;68636;52.704;6.536;2023-07-20T00:22:50;3.05;;;1.17;;
58338;SDS011;68636;52.704;6.536;2023-07-20T00:25:17;3.67;;;1.38;;
58338;SDS011;68636;52.704;6.536;2023-07-20T00:27:43;3.75;;;1.05;;
58338;SDS011;68636;52.704;6.536;2023-07-20T00:30:09;3.90;;;1.58;;
58338;SDS011;68636;52.704;6.536;2023-07-20T00:32:35;2.88;;;1.20;;
58338;SDS011;68636;52.704;6.536;2023-07-20T00:35:01;5.28;;;1.20;;
58338;SDS011;68636;52.704;6.536;2023-07-20T00:37:27;2.95;;;1.17;;
58338;SDS011;68636;52.704;6.536;2023-07-20T00:39:53;3.10;;;1.52;;
58338;SDS011;68636;52.704;6.536;2023-07-20T00:42:18;3.22;;;1.50;;
58338;SDS011;68636;52.704;6.536;2023-07-20T00:44:44;2.60;;;1.38;;
58338;SDS011;68636;52.704;6.536;2023-07-20T00:47:10;2.92;;;1.55;;
58338;SDS011;68636;52.704;6.536;2023-07-20T00:49:36;3.45;;;1.65;;
58338;SDS011;68636;52.704;6.536;2023-07-20T00:52:03;5.40;;;1.75;;
58338;SDS011;68636;52.704;6.536;2023-07-20T00:54:30;3.38;;;1.70;;
58338;SDS011;68636;52.704;6.536;2023-07-20T00:56:56;5.13;;;1.75;;
58338;SDS011;68636;52.704;6.536;2023-07-20T00:59:23;3.42;;;1.75;;
58338;SDS011;68636;52.704;6.536;2023-07-20T01:01:48;3.25;;;1.80;;
58338;SDS011;68636;52.704;6.536;2023-07-20T01:04:14;4.13;;;1.70;;
58338;SDS011;68636;52.704;6.536;2023-07-20T01:06:45;3.10;;;1.63;;
58338;SDS011;68636;52.704;6.536;2023-07-20T01:09:39;4.82;;;1.92;;
58338;SDS011;68636;52.704;6.536;2023-07-20T01:14:34;5.35;;;1.95;;
58338;SDS011;68636;52.704;6.536;2023-07-20T01:17:01;5.20;;;2.15;;
58338;SDS011;68636;52.704;6.536;2023-07-20T01:19:27;5.07;;;2.10;;
58338;SDS011;68636;52.704;6.536;2023-07-20T01:21:55;5.20;;;2.42;;
58338;SDS011;68636;52.704;6.536;2023-07-20T01:33:04;4.20;;;2.30;;
58338;SDS011;68636;52.704;6.536;2023-07-20T01:35:32;8.35;;;2.75;;
58338;SDS011;68636;52.704;6.536;2023-07-20T01:37:59;7.18;;;2.70;;
58338;SDS011;68636;52.704;6.536;2023-07-20T01:40:26;4.35;;;2.50;;
58338;SDS011;68636;52.704;6.536;2023-07-20T01:42:52;7.53;;;3.28;;
58338;SDS011;68636;52.704;6.536;2023-07-20T01:45:18;6.70;;;2.77;;
58338;SDS011;68636;52.704;6.536;2023-07-20T01:47:44;5.82;;;2.97;;
58338;SDS011;68636;52.704;6.536;2023-07-20T01:50:10;4.85;;;3.15;;
58338;SDS011;68636;52.704;6.536;2023-07-20T01:52:36;6.85;;;3.20;;
58338;SDS011;68636;52.704;6.536;2023-07-20T01:55:02;7.03;;;3.30;;
58338;SDS011;68636;52.704;6.536;2023-07-20T01:57:29;5.75;;;3.65;;
58338;SDS011;68636;52.704;6.536;2023-07-20T01:59:55;5.15;;;3.20;;
58338;SDS011;68636;52.704;6.536;2023-07-20T02:02:22;5.50;;;3.13;;
58338;SDS011;68636;52.704;6.536;2023-07-20T02:04:51;5.60;;;2.97;;
58338;SDS011;68636;52.704;6.536;2023-07-20T02:07:17;6.68;;;3.08;;
58338;SDS011;68636;52.704;6.536;2023-07-20T02:09:43;7.15;;;3.20;;
58338;SDS011;68636;52.704;6.536;2023-07-20T02:12:08;5.93;;;3.15;;
58338;SDS011;68636;52.704;6.536;2023-07-20T02:14:34;5.13;;;3.00;;
58338;SDS011;68636;52.704;6.536;2023-07-20T02:17:00;5.78;;;2.80;;
58338;SDS011;68636;52.704;6.536;2023-07-20T02:19:26;5.43;;;3.20;;
58338;SDS011;68636;52.704;6.536;2023-07-20T02:21:52;5.88;;;3.05;;
58338;SDS011;68636;52.704;6.536;2023-07-20T02:24:18;5.55;;;3.35;;
58338;SDS011;68636;52.704;6.536;2023-07-20T02:26:44;7.22;;;3.28;;
58338;SDS011;68636;52.704;6.536;2023-07-20T02:29:09;7.32;;;3.30;;
58338;SDS011;68636;52.704;6.536;2023-07-20T02:34:04;8.25;;;2.85;;
58338;SDS011;68636;52.704;6.536;2023-07-20T02:36:31;4.95;;;2.90;;
58338;SDS011;68636;52.704;6.536;2023-07-20T02:41:24;7.70;;;3.05;;
58338;SDS011;68636;52.704;6.536;2023-07-20T02:43:49;7.30;;;3.10;;
58338;SDS011;68636;52.704;6.536;2023-07-20T02:46:15;7.97;;;3.28;;
58338;SDS011;68636;52.704;6.536;2023-07-20T02:48:41;6.53;;;3.17;;
58338;SDS011;68636;52.704;6.536;2023-07-20T02:51:06;6.25;;;3.58;;
58338;SDS011;68636;52.704;6.536;2023-07-20T02:53:32;5.20;;;3.10;;
58338;SDS011;68636;52.704;6.536;2023-07-20T02:55:58;7.47;;;3.60;;
58338;SDS011;68636;52.704;6.536;2023-07-20T02:58:24;6.60;;;3.35;;
58338;SDS011;68636;52.704;6.536;2023-07-20T03:00:50;6.63;;;3.50;;
58338;SDS011;68636;52.704;6.536;2023-07-20T03:03:15;8.32;;;4.00;;
58338;SDS011;68636;52.704;6.536;2023-07-20T03:05:41;7.68;;;3.63;;
58338;SDS011;68636;52.704;6.536;2023-07-20T03:08:07;10.10;;;4.13;;
58338;SDS011;68636;52.704;6.536;2023-07-20T03:10:38;6.85;;;3.53;;
58338;SDS011;68636;52.704;6.536;2023-07-20T03:13:05;7.53;;;3.53;;
58338;SDS011;68636;52.704;6.536;2023-07-20T03:15:31;9.03;;;3.73;;
58338;SDS011;68636;52.704;6.536;2023-07-20T03:17:57;7.60;;;3.72;;
58338;SDS011;68636;52.704;6.536;2023-07-20T03:20:23;6.43;;;3.80;;
58338;SDS011;68636;52.704;6.536;2023-07-20T03:22:49;6.97;;;3.70;;
58338;SDS011;68636;52.704;6.536;2023-07-20T03:25:15;8.30;;;4.10;;
58338;SDS011;68636;52.704;6.536;2023-07-20T03:27:41;7.82;;;3.90;;
58338;SDS011;68636;52.704;6.536;2023-07-20T03:30:07;6.95;;;3.40;;
58338;SDS011;68636;52.704;6.536;2023-07-20T03:32:34;7.60;;;3.60;;
58338;SDS011;68636;52.704;6.536;2023-07-20T03:35:00;7.75;;;3.85;;
58338;SDS011;68636;52.704;6.536;2023-07-20T03:37:27;10.40;;;4.07;;
58338;SDS011;68636;52.704;6.536;2023-07-20T03:39:52;9.18;;;4.20;;
58338;SDS011;68636;52.704;6.536;2023-07-20T03:42:18;7.78;;;3.70;;
58338;SDS011;68636;52.704;6.536;2023-07-20T03:44:44;9.38;;;3.85;;
58338;SDS011;68636;52.704;6.536;2023-07-20T03:47:09;8.73;;;3.80;;
58338;SDS011;68636;52.704;6.536;2023-07-20T03:49:35;8.25;;;4.38;;
58338;SDS011;68636;52.704;6.536;2023-07-20T03:52:01;7.18;;;3.72;;
58338;SDS011;68636;52.704;6.536;2023-07-20T03:54:28;8.30;;;4.43;;
58338;SDS011;68636;52.704;6.536;2023-07-20T03:56:54;9.20;;;4.47;;
58338;SDS011;68636;52.704;6.536;2023-07-20T03:59:20;8.90;;;3.63;;
58338;SDS011;68636;52.704;6.536;2023-07-20T04:01:45;8.63;;;4.13;;
58338;SDS011;68636;52.704;6.536;2023-07-20T04:04:11;7.43;;;4.30;;
58338;SDS011;68636;52.704;6.536;2023-07-20T04:06:39;8.55;;;4.22;;
58338;SDS011;68636;52.704;6.536;2023-07-20T04:09:04;7.97;;;4.15;;
58338;SDS011;68636;52.704;6.536;2023-07-20T04:11:30;8.05;;;4.03;;
58338;SDS011;68636;52.704;6.536;2023-07-20T04:13:56;11.45;;;4.45;;
58338;SDS011;68636;52.704;6.536;2023-07-20T04:16:21;8.60;;;3.78;;
58338;SDS011;68636;52.704;6.536;2023-07-20T04:18:47;7.30;;;4.13;;
58338;SDS011;68636;52.704;6.536;2023-07-20T04:21:13;9.05;;;4.15;;
58338;SDS011;68636;52.704;6.536;2023-07-20T04:23:39;8.55;;;4.30;;
58338;SDS011;68636;52.704;6.536;2023-07-20T04:26:04;8.45;;;4.20;;
58338;SDS011;68636;52.704;6.536;2023-07-20T04:31:09;7.83;;;4.27;;
58338;SDS011;68636;52.704;6.536;2023-07-20T04:33:35;6.65;;;3.75;;
58338;SDS011;68636;52.704;6.536;2023-07-20T04:36:01;8.02;;;4.15;;
58338;SDS011;68636;52.704;6.536;2023-07-20T04:38:28;7.35;;;4.03;;
58338;SDS011;68636;52.704;6.536;2023-07-20T04:40:53;9.07;;;3.90;;
58338;SDS011;68636;52.704;6.536;2023-07-20T04:43:19;8.35;;;4.35;;
58338;SDS011;68636;52.704;6.536;2023-07-20T04:45:44;7.65;;;4.15;;
58338;SDS011;68636;52.704;6.536;2023-07-20T04:48:11;8.30;;;4.18;;
58338;SDS011;68636;52.704;6.536;2023-07-20T04:50:40;10.13;;;5.53;;
58338;SDS011;68636;52.704;6.536;2023-07-20T04:53:06;8.77;;;4.43;;
58338;SDS011;68636;52.704;6.536;2023-07-20T04:55:32;7.35;;;3.85;;
58338;SDS011;68636;52.704;6.536;2023-07-20T04:58:01;7.97;;;3.50;;
58338;SDS011;68636;52.704;6.536;2023-07-20T05:00:28;8.10;;;4.10;;
58338;SDS011;68636;52.704;6.536;2023-07-20T05:02:55;7.25;;;3.90;;
58338;SDS011;68636;52.704;6.536;2023-07-20T05:05:21;6.55;;;3.60;;
58338;SDS011;68636;52.704;6.536;2023-07-20T05:07:47;7.57;;;3.28;;
58338;SDS011;68636;52.704;6.536;2023-07-20T05:10:13;11.00;;;2.85;;
58338;SDS011;68636;52.704;6.536;2023-07-20T05:12:38;7.60;;;3.35;;
58338;SDS011;68636;52.704;6.536;2023-07-20T05:15:04;8.93;;;3.20;;
58338;SDS011;68636;52.704;6.536;2023-07-20T05:17:30;8.38;;;3.80;;
58338;SDS011;68636;52.704;6.536;2023-07-20T05:19:56;5.93;;;3.03;;
58338;SDS011;68636;52.704;6.536;2023-07-20T05:22:22;8.57;;;2.90;;
58338;SDS011;68636;52.704;6.536;2023-07-20T05:24:49;6.90;;;3.10;;
58338;SDS011;68636;52.704;6.536;2023-07-20T05:27:15;5.55;;;2.72;;
58338;SDS011;68636;52.704;6.536;2023-07-20T05:29:44;6.72;;;2.80;;
58338;SDS011;68636;52.704;6.536;2023-07-20T05:32:10;5.53;;;2.70;;
58338;SDS011;68636;52.704;6.536;2023-07-20T05:34:36;7.18;;;2.50;;
58338;SDS011;68636;52.704;6.536;2023-07-20T05:37:02;4.93;;;1.85;;
58338;SDS011;68636;52.704;6.536;2023-07-20T05:39:28;3.50;;;1.60;;
58338;SDS011;68636;52.704;6.536;2023-07-20T05:41:53;4.03;;;1.60;;
58338;SDS011;68636;52.704;6.536;2023-07-20T05:44:19;3.78;;;1.25;;
58338;SDS011;68636;52.704;6.536;2023-07-20T05:46:45;5.65;;;1.35;;
58338;SDS011;68636;52.704;6.536;2023-07-20T05:49:11;3.05;;;1.10;;
58338;SDS011;68636;52.704;6.536;2023-07-20T05:51:36;7.25;;;1.08;;
58338;SDS011;68636;52.704;6.536;2023-07-20T05:54:02;3.70;;;1.05;;
58338;SDS011;68636;52.704;6.536;2023-07-20T05:56:28;3.33;;;1.20;;
58338;SDS011;68636;52.704;6.536;2023-07-20T05:58:53;3.80;;;1.20;;
58338;SDS011;68636;52.704;6.536;2023-07-20T06:01:19;5.00;;;1.20;;
58338;SDS011;68636;52.704;6.536;2023-07-20T06:03:45;2.63;;;0.98;;
58338;SDS011;68636;52.704;6.536;2023-07-20T06:06:10;8.20;;;1.00;;
58338;SDS011;68636;52.704;6.536;2023-07-20T06:08:37;2.97;;;1.10;;
58338;SDS011;68636;52.704;6.536;2023-07-20T06:11:03;3.90;;;0.90;;
58338;SDS011;68636;52.704;6.536;2023-07-20T06:13:29;2.08;;;0.80;;
58338;SDS011;68636;52.704;6.536;2023-07-20T06:15:55;3.92;;;0.80;;
58338;SDS011;68636;52.704;6.536;2023-07-20T06:18:22;6.32;;;0.80;;
58338;SDS011;68636;52.704;6.536;2023-07-20T06:20:49;2.40;;;0.73;;
58338;SDS011;68636;52.704;6.536;2023-07-20T06:23:16;5.53;;;0.70;;
58338;SDS011;68636;52.704;6.536;2023-07-20T06:25:43;4.35;;;0.85;;
58338;SDS011;68636;52.704;6.536;2023-07-20T06:28:09;2.75;;;0.70;;
58338;SDS011;68636;52.704;6.536;2023-07-20T06:30:35;4.88;;;0.70;;
58338;SDS011;68636;52.704;6.536;2023-07-20T06:33:01;2.17;;;0.60;;
58338;SDS011;68636;52.704;6.536;2023-07-20T06:35:26;3.90;;;0.60;;
58338;SDS011;68636;52.704;6.536;2023-07-20T06:37:52;2.70;;;0.50;;
58338;SDS011;68636;52.704;6.536;2023-07-20T06:40:18;1.80;;;0.35;;
58338;SDS011;68636;52.704;6.536;2023-07-20T06:42:43;4.70;;;0.50;;
58338;SDS011;68636;52.704;6.536;2023-07-20T06:45:09;2.20;;;0.63;;
58338;SDS011;68636;52.704;6.536;2023-07-20T06:47:37;2.60;;;0.60;;
58338;SDS011;68636;52.704;6.536;2023-07-20T06:50:05;2.17;;;0.50;;
58338;SDS011;68636;52.704;6.536;2023-07-20T06:52:35;1.83;;;0.50;;
58338;SDS011;68636;52.704;6.536;2023-07-20T06:55:00;4.45;;;0.50;;
58338;SDS011;68636;52.704;6.536;2023-07-20T06:57:26;2.37;;;0.43;;
58338;SDS011;68636;52.704;6.536;2023-07-20T06:59:52;3.27;;;0.40;;
58338;SDS011;68636;52.704;6.536;2023-07-20T07:02:18;1.67;;;0.47;;
58338;SDS011;68636;52.704;6.536;2023-07-20T07:04:44;1.58;;;0.40;;
58338;SDS011;68636;52.704;6.536;2023-07-20T07:07:13;2.95;;;0.50;;
58338;SDS011;68636;52.704;6.536;2023-07-20T07:09:40;1.65;;;0.38;;
58338;SDS011;68636;52.704;6.536;2023-07-20T07:12:06;1.60;;;0.43;;
58338;SDS011;68636;52.704;6.536;2023-07-20T07:14:32;3.30;;;0.50;;
58338;SDS011;68636;52.704;6.536;2023-07-20T07:16:58;2.97;;;0.40;;
58338;SDS011;68636;52.704;6.536;2023-07-20T07:19:23;2.63;;;0.30;;
58338;SDS011;68636;52.704;6.536;2023-07-20T07:21:49;1.90;;;0.50;;
58338;SDS011;68636;52.704;6.536;2023-07-20T07:24:16;2.58;;;0.50;;
58338;SDS011;68636;52.704;6.536;2023-07-20T07:26:41;1.57;;;0.43;;
58338;SDS011;68636;52.704;6.536;2023-07-20T07:29:07;3.77;;;0.40;;
58338;SDS011;68636;52.704;6.536;2023-07-20T07:31:34;1.60;;;0.53;;
58338;SDS011;68636;52.704;6.536;2023-07-20T07:34:01;3.58;;;0.50;;
58338;SDS011;68636;52.704;6.536;2023-07-20T07:36:27;2.70;;;0.57;;
58338;SDS011;68636;52.704;6.536;2023-07-20T07:38:53;2.90;;;0.40;;
58338;SDS011;68636;52.704;6.536;2023-07-20T07:41:19;3.63;;;0.40;;
58338;SDS011;68636;52.704;6.536;2023-07-20T07:43:45;3.63;;;0.40;;
58338;SDS011;68636;52.704;6.536;2023-07-20T07:46:11;3.60;;;0.33;;
58338;SDS011;68636;52.704;6.536;2023-07-20T07:48:37;1.17;;;0.30;;
58338;SDS011;68636;52.704;6.536;2023-07-20T07:51:03;1.97;;;0.40;;
58338;SDS011;68636;52.704;6.536;2023-07-20T07:53:29;1.83;;;0.40;;
58338;SDS011;68636;52.704;6.536;2023-07-20T07:55:54;1.80;;;0.50;;
58338;SDS011;68636;52.704;6.536;2023-07-20T07:58:20;2.83;;;0.30;;
58338;SDS011;68636;52.704;6.536;2023-07-20T08:00:46;2.63;;;0.50;;
58338;SDS011;68636;52.704;6.536;2023-07-20T08:03:13;1.13;;;0.30;;
58338;SDS011;68636;52.704;6.536;2023-07-20T08:05:38;1.27;;;0.40;;
58338;SDS011;68636;52.704;6.536;2023-07-20T08:08:04;3.33;;;0.50;;
58338;SDS011;68636;52.704;6.536;2023-07-20T08:10:30;2.17;;;0.40;;
58338;SDS011;68636;52.704;6.536;2023-07-20T08:12:56;2.45;;;0.40;;
58338;SDS011;68636;52.704;6.536;2023-07-20T08:15:22;1.07;;;0.40;;
58338;SDS011;68636;52.704;6.536;2023-07-20T08:17:48;2.30;;;0.30;;
58338;SDS011;68636;52.704;6.536;2023-07-20T08:20:16;2.28;;;0.40;;
58338;SDS011;68636;52.704;6.536;2023-07-20T08:22:43;2.38;;;0.38;;
58338;SDS011;68636;52.704;6.536;2023-07-20T08:25:09;2.70;;;0.40;;
58338;SDS011;68636;52.704;6.536;2023-07-20T08:27:35;5.17;;;0.40;;
58338;SDS011;68636;52.704;6.536;2023-07-20T08:30:02;2.33;;;0.30;;
58338;SDS011;68636;52.704;6.536;2023-07-20T08:32:29;2.25;;;0.40;;
58338;SDS011;68636;52.704;6.536;2023-07-20T08:34:55;3.67;;;0.67;;
58338;SDS011;68636;52.704;6.536;2023-07-20T08:37:20;2.93;;;0.40;;
58338;SDS011;68636;52.704;6.536;2023-07-20T08:39:46;2.73;;;0.40;;
58338;SDS011;68636;52.704;6.536;2023-07-20T08:42:12;1.33;;;0.43;;
58338;SDS011;68636;52.704;6.536;2023-07-20T08:44:41;3.05;;;0.40;;
58338;SDS011;68636;52.704;6.536;2023-07-20T08:47:08;2.22;;;0.50;;
58338;SDS011;68636;52.704;6.536;2023-07-20T08:49:35;4.10;;;0.70;;
58338;SDS011;68636;52.704;6.536;2023-07-20T08:52:00;1.50;;;0.50;;
58338;SDS011;68636;52.704;6.536;2023-07-20T08:54:27;3.00;;;0.47;;
58338;SDS011;68636;52.704;6.536;2023-07-20T08:56:58;5.03;;;0.40;;
58338;SDS011;68636;52.704;6.536;2023-07-20T08:59:28;3.08;;;0.50;;
58338;SDS011;68636;52.704;6.536;2023-07-20T09:01:58;4.63;;;0.40;;
58338;SDS011;68636;52.704;6.536;2023-07-20T09:04:25;1.65;;;0.40;;
58338;SDS011;68636;52.704;6.536;2023-07-20T09:06:51;4.70;;;0.30;;
58338;SDS011;68636;52.704;6.536;2023-07-20T09:09:17;2.07;;;0.33;;
58338;SDS011;68636;52.704;6.536;2023-07-20T09:11:43;3.40;;;0.40;;
58338;SDS011;68636;52.704;6.536;2023-07-20T09:14:13;1.83;;;0.40;;
58338;SDS011;68636;52.704;6.536;2023-07-20T09:16:52;1.73;;;0.50;;
58338;SDS011;68636;52.704;6.536;2023-07-20T09:19:19;2.65;;;0.65;;
58338;SDS011;68636;52.704;6.536;2023-07-20T09:21:47;5.63;;;0.65;;
58338;SDS011;68636;52.704;6.536;2023-07-20T09:24:14;3.15;;;0.60;;
58338;SDS011;68636;52.704;6.536;2023-07-20T09:29:08;3.83;;;0.60;;
58338;SDS011;68636;52.704;6.536;2023-07-20T09:31:37;3.28;;;0.50;;
58338;SDS011;68636;52.704;6.536;2023-07-20T09:34:05;2.03;;;0.50;;
58338;SDS011;68636;52.704;6.536;2023-07-20T09:36:33;3.33;;;0.60;;
58338;SDS011;68636;52.704;6.536;2023-07-20T09:39:00;5.35;;;0.60;;
58338;SDS011;68636;52.704;6.536;2023-07-20T09:41:27;3.85;;;0.70;;
58338;SDS011;68636;52.704;6.536;2023-07-20T09:43:53;3.77;;;0.90;;
58338;SDS011;68636;52.704;6.536;2023-07-20T09:46:19;3.00;;;0.60;;
58338;SDS011;68636;52.704;6.536;2023-07-20T09:48:52;1.80;;;0.40;;
58338;SDS011;68636;52.704;6.536;2023-07-20T09:51:24;4.32;;;0.70;;
58338;SDS011;68636;52.704;6.536;2023-07-20T09:53:51;3.58;;;0.60;;
58338;SDS011;68636;52.704;6.536;2023-07-20T09:56:18;2.47;;;0.65;;
58338;SDS011;68636;52.704;6.536;2023-07-20T09:58:47;2.42;;;0.52;;
58338;SDS011;68636;52.704;6.536;2023-07-20T10:01:13;2.80;;;0.60;;
58338;SDS011;68636;52.704;6.536;2023-07-20T10:03:46;2.08;;;0.70;;
58338;SDS011;68636;52.704;6.536;2023-07-20T10:06:15;2.55;;;0.60;;
58338;SDS011;68636;52.704;6.536;2023-07-20T10:08:44;1.67;;;0.47;;
58338;SDS011;68636;52.704;6.536;2023-07-20T10:11:12;2.13;;;0.60;;
58338;SDS011;68636;52.704;6.536;2023-07-20T10:13:41;5.60;;;0.80;;
58338;SDS011;68636;52.704;6.536;2023-07-20T10:16:11;6.15;;;1.15;;
58338;SDS011;68636;52.704;6.536;2023-07-20T10:21:37;4.90;;;1.17;;
58338;SDS011;68636;52.704;6.536;2023-07-20T10:24:07;5.60;;;1.27;;
58338;SDS011;68636;52.704;6.536;2023-07-20T10:29:00;2.45;;;0.70;;
58338;SDS011;68636;52.704;6.536;2023-07-20T10:33:54;4.20;;;0.90;;
58338;SDS011;68636;52.704;6.536;2023-07-20T10:36:25;3.72;;;1.10;;
58338;SDS011;68636;52.704;6.536;2023-07-20T10:38:55;2.67;;;1.00;;
58338;SDS011;68636;52.704;6.536;2023-07-20T10:43:57;4.40;;;0.93;;
58338;SDS011;68636;52.704;6.536;2023-07-20T10:48:59;3.55;;;1.10;;
58338;SDS011;68636;52.704;6.536;2023-07-20T10:51:29;3.20;;;1.00;;
58338;SDS011;68636;52.704;6.536;2023-07-20T10:53:58;2.28;;;0.80;;
58338;SDS011;68636;52.704;6.536;2023-07-20T10:56:27;1.70;;;0.90;;
58338;SDS011;68636;52.704;6.536;2023-07-20T10:58:59;2.08;;;0.70;;
58338;SDS011;68636;52.704;6.536;2023-07-20T11:01:29;2.45;;;0.75;;
58338;SDS011;68636;52.704;6.536;2023-07-20T11:03:59;2.95;;;1.10;;
58338;SDS011;68636;52.704;6.536;2023-07-20T11:11:37;2.30;;;0.88;;
58338;SDS011;68636;52.704;6.536;2023-07-20T11:14:05;3.67;;;1.33;;
58338;SDS011;68636;52.704;6.536;2023-07-20T11:19:01;2.40;;;1.00;;
58338;SDS011;68636;52.704;6.536;2023-07-20T11:21:29;2.22;;;0.60;;
58338;SDS011;68636;52.704;6.536;2023-07-20T11:24:03;2.28;;;0.47;;
58338;SDS011;68636;52.704;6.536;2023-07-20T11:26:29;1.73;;;0.50;;
58338;SDS011;68636;52.704;6.536;2023-07-20T11:28:55;4.13;;;0.60;;
58338;SDS011;68636;52.704;6.536;2023-07-20T11:31:21;1.80;;;0.80;;
58338;SDS011;68636;52.704;6.536;2023-07-20T11:33:46;3.80;;;0.80;;
58338;SDS011;68636;52.704;6.536;2023-07-20T11:36:13;4.77;;;0.90;;
58338;SDS011;68636;52.704;6.536;2023-07-20T11:38:42;4.60;;;0.85;;
58338;SDS011;68636;52.704;6.536;2023-07-20T11:41:09;2.00;;;0.70;;
58338;SDS011;68636;52.704;6.536;2023-07-20T11:43:34;2.40;;;0.60;;
58338;SDS011;68636;52.704;6.536;2023-07-20T11:46:04;3.30;;;0.63;;
58338;SDS011;68636;52.704;6.536;2023-07-20T11:48:30;2.50;;;0.52;;
58338;SDS011;68636;52.704;6.536;2023-07-20T11:50:56;1.73;;;0.57;;
58338;SDS011;68636;52.704;6.536;2023-07-20T11:53:22;3.33;;;0.60;;
58338;SDS011;68636;52.704;6.536;2023-07-20T11:55:50;2.47;;;0.50;;
58338;SDS011;68636;52.704;6.536;2023-07-20T11:58:17;2.13;;;0.47;;
58338;SDS011;68636;52.704;6.536;2023-07-20T12:00:43;2.63;;;0.53;;
58338;SDS011;68636;52.704;6.536;2023-07-20T12:03:10;2.63;;;0.50;;
58338;SDS011;68636;52.704;6.536;2023-07-20T12:05:38;3.38;;;0.60;;
58338;SDS011;68636;52.704;6.536;2023-07-20T12:10:30;2.33;;;0.50;;
58338;SDS011;68636;52.704;6.536;2023-07-20T12:13:01;3.20;;;0.60;;
58338;SDS011;68636;52.704;6.536;2023-07-20T12:15:30;2.42;;;0.50;;
58338;SDS011;68636;52.704;6.536;2023-07-20T12:17:57;2.45;;;0.50;;
58338;SDS011;68636;52.704;6.536;2023-07-20T12:30:41;1.50;;;0.50;;
58338;SDS011;68636;52.704;6.536;2023-07-20T12:33:07;4.22;;;0.73;;
58338;SDS011;68636;52.704;6.536;2023-07-20T12:35:33;1.50;;;0.57;;
58338;SDS011;68636;52.704;6.536;2023-07-20T12:38:00;2.80;;;0.55;;
58338;SDS011;68636;52.704;6.536;2023-07-20T12:40:26;2.45;;;0.70;;
58338;SDS011;68636;52.704;6.536;2023-07-20T12:42:52;3.35;;;0.80;;
58338;SDS011;68636;52.704;6.536;2023-07-20T12:45:18;1.90;;;0.50;;
58338;SDS011;68636;52.704;6.536;2023-07-20T12:47:44;2.53;;;0.60;;
58338;SDS011;68636;52.704;6.536;2023-07-20T12:50:10;1.63;;;0.50;;
58338;SDS011;68636;52.704;6.536;2023-07-20T12:52:36;3.75;;;0.65;;
58338;SDS011;68636;52.704;6.536;2023-07-20T12:55:07;2.38;;;0.52;;
58338;SDS011;68636;52.704;6.536;2023-07-20T12:57:34;3.72;;;0.52;;
58338;SDS011;68636;52.704;6.536;2023-07-20T13:00:04;2.38;;;0.80;;
58338;SDS011;68636;52.704;6.536;2023-07-20T13:02:32;1.92;;;0.60;;
58338;SDS011;68636;52.704;6.536;2023-07-20T13:04:58;3.97;;;0.70;;
58338;SDS011;68636;52.704;6.536;2023-07-20T13:07:30;3.17;;;0.63;;
58338;SDS011;68636;52.704;6.536;2023-07-20T13:10:01;4.90;;;0.60;;
58338;SDS011;68636;52.704;6.536;2023-07-20T13:12:28;1.88;;;0.50;;
58338;SDS011;68636;52.704;6.536;2023-07-20T13:14:55;1.85;;;0.60;;
58338;SDS011;68636;52.704;6.536;2023-07-20T13:17:22;3.10;;;0.50;;
58338;SDS011;68636;52.704;6.536;2023-07-20T13:19:48;1.98;;;0.50;;
58338;SDS011;68636;52.704;6.536;2023-07-20T13:22:13;1.90;;;0.30;;
58338;SDS011;68636;52.704;6.536;2023-07-20T13:24:40;1.00;;;0.30;;
58338;SDS011;68636;52.704;6.536;2023-07-20T13:27:06;0.90;;;0.30;;
58338;SDS011;68636;52.704;6.536;2023-07-20T13:29:32;1.17;;;0.40;;
58338;SDS011;68636;52.704;6.536;2023-07-20T13:31:58;2.50;;;0.40;;
58338;SDS011;68636;52.704;6.536;2023-07-20T13:34:25;0.90;;;0.30;;
58338;SDS011;68636;52.704;6.536;2023-07-20T13:36:51;1.88;;;0.30;;
58338;SDS011;68636;52.704;6.536;2023-07-20T13:39:17;1.55;;;0.40;;
58338;SDS011;68636;52.704;6.536;2023-07-20T13:41:44;1.83;;;0.38;;
58338;SDS011;68636;52.704;6.536;2023-07-20T13:44:11;1.98;;;0.43;;
58338;SDS011;68636;52.704;6.536;2023-07-20T13:46:37;1.23;;;0.30;;
58338;SDS011;68636;52.704;6.536;2023-07-20T13:49:04;1.27;;;0.32;;
58338;SDS011;68636;52.704;6.536;2023-07-20T13:51:30;1.73;;;0.40;;
58338;SDS011;68636;52.704;6.536;2023-07-20T13:53:56;1.23;;;0.30;;
58338;SDS011;68636;52.704;6.536;2023-07-20T13:56:23;2.25;;;0.40;;
58338;SDS011;68636;52.704;6.536;2023-07-20T13:58:50;1.65;;;0.40;;
58338;SDS011;68636;52.704;6.536;2023-07-20T14:01:16;1.08;;;0.40;;
58338;SDS011;68636;52.704;6.536;2023-07-20T14:03:48;1.70;;;0.40;;
58338;SDS011;68636;52.704;6.536;2023-07-20T14:06:14;1.90;;;0.47;;
58338;SDS011;68636;52.704;6.536;2023-07-20T14:08:40;3.40;;;0.57;;
58338;SDS011;68636;52.704;6.536;2023-07-20T14:11:06;2.00;;;0.50;;
58338;SDS011;68636;52.704;6.536;2023-07-20T14:13:33;1.48;;;0.40;;
58338;SDS011;68636;52.704;6.536;2023-07-20T14:15:59;2.78;;;0.50;;
58338;SDS011;68636;52.704;6.536;2023-07-20T14:18:25;1.55;;;0.50;;
58338;SDS011;68636;52.704;6.536;2023-07-20T14:20:51;1.42;;;0.40;;
58338;SDS011;68636;52.704;6.536;2023-07-20T14:23:17;1.15;;;0.40;;
58338;SDS011;68636;52.704;6.536;2023-07-20T14:25:43;3.17;;;0.50;;
58338;SDS011;68636;52.704;6.536;2023-07-20T14:28:09;3.53;;;0.52;;
58338;SDS011;68636;52.704;6.536;2023-07-20T14:30:35;1.95;;;0.50;;
58338;SDS011;68636;52.704;6.536;2023-07-20T14:33:01;1.90;;;0.50;;
58338;SDS011;68636;52.704;6.536;2023-07-20T14:35:27;3.78;;;0.50;;
58338;SDS011;68636;52.704;6.536;2023-07-20T14:37:53;2.33;;;0.50;;
58338;SDS011;68636;52.704;6.536;2023-07-20T14:40:19;2.83;;;0.50;;
58338;SDS011;68636;52.704;6.536;2023-07-20T14:42:46;2.28;;;0.47;;
58338;SDS011;68636;52.704;6.536;2023-07-20T14:45:12;1.60;;;0.50;;
58338;SDS011;68636;52.704;6.536;2023-07-20T14:47:38;2.15;;;0.40;;
58338;SDS011;68636;52.704;6.536;2023-07-20T14:50:05;2.35;;;0.47;;
58338;SDS011;68636;52.704;6.536;2023-07-20T14:52:32;1.40;;;0.30;;
58338;SDS011;68636;52.704;6.536;2023-07-20T14:54:58;1.17;;;0.40;;
58338;SDS011;68636;52.704;6.536;2023-07-20T14:57:24;3.60;;;0.50;;
58338;SDS011;68636;52.704;6.536;2023-07-20T14:59:50;1.27;;;0.40;;
58338;SDS011;68636;52.704;6.536;2023-07-20T15:02:17;3.78;;;0.45;;
58338;SDS011;68636;52.704;6.536;2023-07-20T15:04:49;2.83;;;0.63;;
58338;SDS011;68636;52.704;6.536;2023-07-20T15:07:19;2.15;;;0.40;;
58338;SDS011;68636;52.704;6.536;2023-07-20T15:09:47;1.50;;;0.30;;
58338;SDS011;68636;52.704;6.536;2023-07-20T15:12:13;2.75;;;0.40;;
58338;SDS011;68636;52.704;6.536;2023-07-20T15:14:40;2.38;;;0.40;;
58338;SDS011;68636;52.704;6.536;2023-07-20T15:17:09;0.80;;;0.30;;
58338;SDS011;68636;52.704;6.536;2023-07-20T15:22:02;2.05;;;0.30;;
58338;SDS011;68636;52.704;6.536;2023-07-20T15:24:32;4.63;;;0.40;;
58338;SDS011;68636;52.704;6.536;2023-07-20T15:26:58;1.05;;;0.40;;
58338;SDS011;68636;52.704;6.536;2023-07-20T15:29:24;1.50;;;0.40;;
58338;SDS011;68636;52.704;6.536;2023-07-20T15:31:50;2.78;;;0.60;;
58338;SDS011;68636;52.704;6.536;2023-07-20T15:34:16;1.92;;;0.50;;
58338;SDS011;68636;52.704;6.536;2023-07-20T15:36:43;2.67;;;0.57;;
58338;SDS011;68636;52.704;6.536;2023-07-20T15:39:09;2.38;;;0.40;;
58338;SDS011;68636;52.704;6.536;2023-07-20T15:41:35;1.65;;;0.30;;